Flight Track Log - Related Links

Times and Time Zones

All times are in EDT time to prevent confusion due to time zone crossing. See the THY2751 flight status page for this flight to view local times or setup timezone preferences in your user account.

Time Position Orientation Groundspeed Altitude Reporting Facility
EDT Latitude Longitude Course Direction KTS MPH feet Rate Location/Type
Tue 08:34:15 AM 38.4767 43.2975 287° West  Level Estimated
Tue 08:35:15 AM 38.5104 43.1581 287° West  Level Estimated
Tue 08:36:15 AM 38.5440 43.0185 287° West  Level Estimated
Tue 08:37:15 AM 38.5774 42.8788 287° West  Level Estimated
Tue 08:38:15 AM 38.6107 42.7391 287° West  Level Estimated
Tue 08:39:15 AM 38.6438 42.5991 287° West  Level Estimated
Tue 08:40:15 AM 38.6767 42.4591 287° West  Level Estimated
Tue 08:41:15 AM 38.7095 42.3189 287° West  Level Estimated
Tue 08:42:15 AM 38.7421 42.1786 287° West  Level Estimated
Tue 08:43:15 AM 38.7745 42.0381 286° West  Level Estimated
Tue 08:44:15 AM 38.8067 41.8975 286° West  Level Estimated
Tue 08:45:15 AM 38.8388 41.7568 286° West  Level Estimated
Tue 08:46:15 AM 38.8707 41.6160 286° West  Level Estimated
Tue 08:47:15 AM 38.9025 41.4751 286° West  Level Estimated
Tue 08:48:15 AM 38.9340 41.3340 286° West  Level Estimated
Tue 08:49:15 AM 38.9654 41.1928 286° West  Level Estimated
Tue 08:50:15 AM 38.9967 41.0514 286° West  Level Estimated
Tue 08:51:15 AM 39.0277 40.9100 286° West  Level Estimated
Tue 08:52:15 AM 39.0586 40.7684 286° West  Level Estimated
Tue 08:53:15 AM 39.0893 40.6267 286° West  Level Estimated
Tue 08:54:15 AM 39.1199 40.4849 285° West  Level Estimated
Tue 08:55:15 AM 39.1503 40.3430 285° West  Level Estimated
Tue 08:56:15 AM 39.1805 40.2009 285° West  Level Estimated
Tue 08:57:15 AM 39.2105 40.0587 285° West  Level Estimated
Tue 08:58:15 AM 39.2404 39.9164 285° West  Level Estimated
Tue 08:59:15 AM 39.2701 39.7740 285° West  Level Estimated
Tue 09:00:15 AM 39.2996 39.6314 285° West  Level Estimated
Tue 09:01:15 AM 39.3289 39.4887 285° West  Level Estimated
Tue 09:02:15 AM 39.3581 39.3460 285° West  Level Estimated
Tue 09:03:15 AM 39.3871 39.2030 285° West  Level Estimated
Tue 09:04:15 AM 39.4159 39.0600 285° West  Level Estimated
Tue 09:05:15 AM 39.4445 38.9169 284° West  Level Estimated
Tue 09:06:15 AM 39.4730 38.7736 284° West  Level Estimated
Tue 09:07:15 AM 39.5013 38.6302 284° West  Level Estimated
Tue 09:08:15 AM 39.5294 38.4867 284° West  Level Estimated
Tue 09:09:15 AM 39.5573 38.3431 284° West  Level Estimated
Tue 09:10:15 AM 39.5851 38.1994 284° West  Level Estimated
Tue 09:11:15 AM 39.6127 38.0555 284° West  Level Estimated
Tue 09:12:15 AM 39.6401 37.9116 284° West  Level Estimated
Tue 09:13:15 AM 39.6673 37.7675 284° West  Level Estimated
Tue 09:14:15 AM 39.6943 37.6233 284° West  Level Estimated
Tue 09:15:15 AM 39.7212 37.4790 284° West  Level Estimated
Tue 09:16:15 AM 39.7479 37.3346 283° West  Level Estimated
Tue 09:17:15 AM 39.7744 37.1901 283° West  Level Estimated
Tue 09:18:15 AM 39.8007 37.0455 283° West  Level Estimated
Tue 09:19:15 AM 39.8269 36.9007 283° West  Level Estimated
Tue 09:20:15 AM 39.8529 36.7559 283° West  Level Estimated
Tue 09:21:15 AM 39.8787 36.6109 283° West  Level Estimated
Tue 09:22:15 AM 39.9043 36.4658 283° West  Level Estimated
Tue 09:23:15 AM 39.9297 36.3207 283° West  Level Estimated
Tue 09:24:15 AM 39.9549 36.1754 283° West  Level Estimated
Tue 09:25:15 AM 39.9800 36.0300 283° West  Level Estimated
Tue 09:26:15 AM 40.0049 35.8845 283° West  Level Estimated
Tue 09:27:15 AM 40.0296 35.7389 282° West  Level Estimated
Tue 09:28:15 AM 40.0541 35.5932 282° West  Level Estimated
Tue 09:29:15 AM 40.0785 35.4473 282° West  Level Estimated
Tue 09:30:15 AM 40.1026 35.3014 282° West  Level Estimated
Tue 09:31:15 AM 40.1266 35.1554 282° West  Level Estimated
Tue 09:32:15 AM 40.1504 35.0093 282° West  Level Estimated
Tue 09:33:15 AM 40.1740 34.8630 282° West  Level Estimated
Tue 09:34:15 AM 40.1974 34.7167 282° West  Level Estimated
Tue 09:35:15 AM 40.2207 34.5703 282° West  Level Estimated
Tue 09:36:15 AM 40.2437 34.4238 282° West  Level Estimated
Tue 09:37:15 AM 40.2666 34.2771 282° West  Level Estimated
Tue 09:38:15 AM 40.2893 34.1304 281° West  Level Estimated
Tue 09:39:15 AM 40.3118 33.9836 281° West  Level Estimated
Tue 09:40:15 AM 40.3341 33.8367 281° West  Level Estimated
Tue 09:41:15 AM 40.3562 33.6896 281° West  Level Estimated
Tue 09:42:15 AM 40.3781 33.5425 281° West  Level Estimated
Tue 09:43:15 AM 40.3999 33.3953 281° West  Level Estimated
Tue 09:44:15 AM 40.4215 33.2480 281° West  Level Estimated
Tue 09:45:15 AM 40.4428 33.1006 281° West  Level Estimated
Tue 09:46:15 AM 40.4640 32.9531 281° West  Level Estimated
Tue 09:47:15 AM 40.4850 32.8055 281° West  Level Estimated
Tue 09:48:15 AM 40.5058 32.6578 280° West  Level Estimated
Tue 09:49:15 AM 40.5265 32.5101 280° West  Level Estimated
Tue 09:50:15 AM 40.5469 32.3622 280° West  Level Estimated
Tue 09:51:15 AM 40.5672 32.2143 280° West  Level Estimated
Tue 09:52:15 AM 40.5872 32.0662 280° West  Level Estimated
Tue 09:53:15 AM 40.6071 31.9181 280° West  Level Estimated
Tue 09:54:15 AM 40.6268 31.7699 280° West  Level Estimated
Tue 09:55:15 AM 40.6463 31.6216 280° West  Level Estimated
Tue 09:56:15 AM 40.6656 31.4732 280° West  Level Estimated
Tue 09:57:15 AM 40.6847 31.3247 280° West  Level Estimated
Tue 09:58:15 AM 40.7036 31.1762 279° West  Level Estimated
Tue 09:59:15 AM 40.7224 31.0275 279° West  Level Estimated
Tue 10:00:15 AM 40.7409 30.8788 279° West  Level Estimated
Tue 10:01:15 AM 40.7592 30.7300 279° West  Level Estimated
Tue 10:02:15 AM 40.7774 30.5811 279° West  Level Estimated
Tue 10:03:15 AM 40.7954 30.4321 279° West  Level Estimated
Tue 10:04:15 AM 40.8131 30.2831 279° West  Level Estimated
Tue 10:05:15 AM 40.8307 30.1339 279° West  Level Estimated
Tue 10:06:15 AM 40.8481 29.9847 279° West  Level Estimated
Tue 10:07:15 AM 40.8653 29.8354 279° West  Level Estimated
Tue 10:08:15 AM 40.8824 29.6861 279° West  Level Estimated
Tue 10:09:15 AM 40.8992 29.5366 278° West  Level Estimated
Tue 10:10:15 AM 40.9158 29.3871 278° West  Level Estimated
Tue 10:11:15 AM 40.9322 29.2375 278° West  Level Estimated
Tue 10:12:15 AM 40.9485 29.0879 278° West  Level Estimated
Tue 10:13:15 AM 40.9645 28.9381 278° West  Level Estimated
Tue 10:14:15 AM 40.9803 28.7883 98° East  Level Estimated
Tue 10:15:15 AM 40.9645 28.9381 278° West  Level Estimated
Tue 10:16:15 AM 40.9803 28.7883 98° East  Level Estimated
Tue 10:17:15 AM 40.9645 28.9381 278° West  Level Estimated
Tue 10:18:15 AM 40.9803 28.7883 98° East  Level Estimated
Tue 10:19:15 AM 40.9645 28.9381 278° West  Level Estimated
Tue 10:20:15 AM 40.9803 28.7883 98° East  Level Estimated
Tue 10:21:15 AM 40.9645 28.9381 278° West  Level Estimated
Tue 10:22:15 AM 40.9803 28.7883 98° East  Level Estimated
Tue 10:23:15 AM 40.9645 28.9381 278° West  Level Estimated
Tue 10:24:15 AM 40.9803 28.7883 98° East  Level Estimated
Tue 10:25:15 AM 40.9645 28.9381 278° West  Level Estimated
Tue 10:26:15 AM 40.9803 28.7883 98° East  Level Estimated
Tue 10:27:15 AM 40.9645 28.9381 278° West  Level Estimated
Tue 10:28:15 AM 40.9803 28.7883 98° East  Level Estimated
Tue 10:29:15 AM 40.9645 28.9381 98° East  Level Estimated

Login

Don't have an account? Register now (free) for customized features, flight alerts, and more!